createdAt,value
2019-03-16T00:00:27.570Z,1000.81
2019-03-16T00:04:56.012Z,1000.78
2019-03-16T00:05:47.535Z,1000.76
2019-03-16T00:07:57.357Z,1000.85
2019-03-16T00:08:41.222Z,1000.77
2019-03-16T00:09:23.845Z,1000.75
2019-03-16T00:10:06.244Z,1000.65
2019-03-16T00:10:50.767Z,1000.66
2019-03-16T00:11:34.078Z,1000.66
2019-03-16T00:12:25.461Z,1000.74
2019-03-16T00:13:05.900Z,1000.73
2019-03-16T00:13:46.323Z,1000.75
2019-03-16T00:14:27.698Z,1000.73
2019-03-16T00:15:08.199Z,1000.73
2019-03-16T00:15:48.614Z,1000.69
2019-03-16T00:16:29.109Z,1000.8
2019-03-16T00:17:09.759Z,1000.8
2019-03-16T00:17:51.943Z,1000.84
2019-03-16T00:18:32.396Z,1000.86
2019-03-16T00:19:14.501Z,1000.77
2019-03-16T00:19:57.362Z,1000.85
2019-03-16T00:20:39.969Z,1000.92
2019-03-16T00:21:21.272Z,1000.91
2019-03-16T00:22:01.661Z,1000.97
2019-03-16T00:22:43.748Z,1000.96
2019-03-16T00:23:28.819Z,1000.99
2019-03-16T00:24:10.154Z,1001.02
2019-03-16T00:24:50.574Z,1000.99
2019-03-16T00:25:32.563Z,1001.02
2019-03-16T00:26:13.029Z,1001.01
2019-03-16T00:26:53.409Z,1000.97
2019-03-16T00:27:33.755Z,1000.92
2019-03-16T00:28:14.654Z,1000.9
2019-03-16T00:28:55.207Z,1000.92
2019-03-16T00:29:36.135Z,1000.93
2019-03-16T00:30:16.444Z,1000.99
2019-03-16T00:30:56.821Z,1001.02
2019-03-16T00:31:37.270Z,1001.02
2019-03-16T00:32:18.782Z,1001.04
2019-03-16T00:32:59.067Z,1001.08
2019-03-16T00:33:39.347Z,1001.08
2019-03-16T00:34:21.429Z,1001.07
2019-03-16T00:35:02.947Z,1001.12
2019-03-16T00:35:43.394Z,1001.06
2019-03-16T00:36:24.658Z,1001.01
2019-03-16T00:37:04.184Z,1001.02
2019-03-16T00:37:44.686Z,1001
2019-03-16T00:38:25.095Z,1001.05
2019-03-16T00:39:07.101Z,1001.06
2019-03-16T00:39:46.584Z,1001.01
2019-03-16T00:40:45.313Z,1001.05
2019-03-16T00:41:26.417Z,1001.08
2019-03-16T00:42:07.681Z,1001.08
2019-03-16T00:42:51.312Z,1001.06
2019-03-16T00:43:31.793Z,1001.1
2019-03-16T00:44:12.251Z,1001.04
2019-03-16T00:44:54.668Z,1001.12
2019-03-16T00:45:36.128Z,1001.15
2019-03-16T00:46:20.994Z,1001.05
2019-03-16T00:47:04.296Z,1001.11
2019-03-16T00:47:45.534Z,1001.11
2019-03-16T00:48:35.345Z,1001.16
2019-03-16T00:49:16.808Z,1001.11
2019-03-16T00:51:45.734Z,1001.15
2019-03-16T00:52:32.952Z,1001.18
2019-03-16T00:53:13.350Z,1001.21
2019-03-16T00:53:53.707Z,1001.19
2019-03-16T00:54:34.486Z,1001.28
2019-03-16T00:55:16.863Z,1001.23
2019-03-16T00:55:57.171Z,1001.19
2019-03-16T00:56:37.737Z,1001.22
2019-03-16T00:57:19.539Z,1001.26
2019-03-16T00:58:00.857Z,1001.25
2019-03-16T00:58:45.100Z,1001.2
2019-03-16T00:59:28.203Z,1001.25
2019-03-16T01:00:09.414Z,1001.29
2019-03-16T01:00:49.791Z,1001.26
2019-03-16T01:01:30.165Z,1001.31
2019-03-16T01:02:11.779Z,1001.3
2019-03-16T01:02:52.182Z,1001.27
2019-03-16T01:03:32.741Z,1001.35
2019-03-16T01:04:14.657Z,1001.23
2019-03-16T01:04:55.309Z,1001.28
2019-03-16T01:05:35.646Z,1001.3
2019-03-16T01:06:17.845Z,1001.28
2019-03-16T01:06:58.142Z,1001.31
2019-03-16T01:07:38.923Z,1001.17
2019-03-16T01:12:30.476Z,1001.24
2019-03-16T01:20:06.479Z,1001.17
2019-03-16T01:21:03.941Z,1001.19
2019-03-16T01:22:34.765Z,1001.08
2019-03-16T01:23:17.655Z,1001.12
2019-03-16T01:24:16.828Z,1001.28
2019-03-16T01:24:57.305Z,1001.28
2019-03-16T01:25:37.931Z,1001.33
2019-03-16T01:26:18.760Z,1001.32
2019-03-16T01:27:01.407Z,1001.31
2019-03-16T01:27:42.284Z,1001.31
2019-03-16T01:28:23.896Z,1001.25
2019-03-16T01:29:07.939Z,1001.3
2019-03-16T01:29:50.795Z,1001.31
2019-03-16T01:30:33.879Z,1001.29
2019-03-16T01:31:14.275Z,1001.25
2019-03-16T01:31:55.492Z,1001.25
2019-03-16T01:32:40.697Z,1001.18
2019-03-16T01:33:19.556Z,1001.11
2019-03-16T01:37:03.623Z,1001.2
2019-03-16T01:37:44.352Z,1001.23
2019-03-16T01:38:24.909Z,1001.27
2019-03-16T01:39:06.843Z,1001.28
2019-03-16T01:39:47.237Z,1001.28
2019-03-16T01:40:27.610Z,1001.31
2019-03-16T01:46:28.387Z,1001.29
2019-03-16T01:47:12.987Z,1001.39
2019-03-16T01:47:53.773Z,1001.4
2019-03-16T01:48:34.628Z,1001.41
2019-03-16T01:49:17.045Z,1001.36
2019-03-16T01:49:57.883Z,1001.27
2019-03-16T01:50:38.817Z,1001.28
2019-03-16T01:51:19.679Z,1001.3
2019-03-16T01:52:01.952Z,1001.29
2019-03-16T01:58:26.470Z,1001.35
2019-03-16T02:00:31.735Z,1001.18
2019-03-16T02:01:23.142Z,1001.19
2019-03-16T02:03:31.889Z,1001.18
2019-03-16T02:04:18.225Z,1001.17
2019-03-16T02:05:02.315Z,1001.14
2019-03-16T02:05:45.178Z,1001.18
2019-03-16T02:06:27.668Z,1001.21
2019-03-16T02:07:08.263Z,1001.2
2019-03-16T02:07:48.878Z,1001.19
2019-03-16T02:08:29.615Z,1001.24
2019-03-16T02:09:09.854Z,1001.27
2019-03-16T02:13:53.297Z,1001.18
2019-03-16T02:18:29.080Z,1001.14
2019-03-16T02:19:31.011Z,1001.17
2019-03-16T02:24:45.322Z,1001.06
2019-03-16T02:33:31.159Z,1001.16
2019-03-16T02:34:24.660Z,1001.11
2019-03-16T02:36:24.870Z,1001.09
2019-03-16T02:39:14.298Z,1001.07
2019-03-16T02:40:06.441Z,1001.05
2019-03-16T02:40:59.449Z,1001.01
2019-03-16T02:50:40.789Z,1000.89
2019-03-16T02:51:27.031Z,1000.82
2019-03-16T02:52:07.764Z,1000.9
2019-03-16T02:52:53.607Z,1000.89
2019-03-16T02:53:35.930Z,1000.9
2019-03-16T02:54:16.192Z,1000.89
2019-03-16T02:54:58.411Z,1000.87
2019-03-16T02:55:38.974Z,1000.87
2019-03-16T02:56:19.626Z,1000.88
2019-03-16T02:56:59.970Z,1000.87
2019-03-16T02:57:40.491Z,1000.87
2019-03-16T02:58:21.134Z,1000.85
2019-03-16T02:59:01.463Z,1000.87
2019-03-16T02:59:41.958Z,1000.85
2019-03-16T03:00:22.491Z,1000.82
2019-03-16T03:01:03.249Z,1000.81
2019-03-16T03:01:43.666Z,1000.77
2019-03-16T03:02:23.955Z,1000.81
2019-03-16T03:03:04.481Z,1000.79
2019-03-16T03:03:45.175Z,1000.78
2019-03-16T03:04:25.344Z,1000.78
2019-03-16T03:05:05.847Z,1000.8
2019-03-16T03:05:46.225Z,1000.79
2019-03-16T03:06:26.585Z,1000.76
2019-03-16T03:07:07.675Z,1000.8
2019-03-16T03:07:48.129Z,1000.75
2019-03-16T03:08:28.450Z,1000.76
2019-03-16T03:09:08.859Z,1000.74
2019-03-16T03:09:49.251Z,1000.74
2019-03-16T03:10:29.678Z,1000.7
2019-03-16T03:11:09.947Z,1000.72
2019-03-16T03:11:50.504Z,1000.7
2019-03-16T03:12:30.787Z,1000.69
2019-03-16T03:13:13.497Z,1000.7
2019-03-16T03:13:51.572Z,1000.71
2019-03-16T03:14:32.374Z,1000.76
2019-03-16T03:15:12.626Z,1000.75
2019-03-16T03:15:52.973Z,1000.75
2019-03-16T03:16:33.675Z,1000.7
2019-03-16T03:17:13.845Z,1000.73
2019-03-16T03:17:54.321Z,1000.73
2019-03-16T03:18:34.603Z,1000.73
2019-03-16T03:19:15.882Z,1000.71
2019-03-16T03:19:56.431Z,1000.72
2019-03-16T03:20:39.801Z,1000.8
2019-03-16T03:21:19.481Z,1000.75
2019-03-16T03:22:01.146Z,1000.76
2019-03-16T03:22:41.570Z,1000.75
2019-03-16T03:23:21.862Z,1000.73
2019-03-16T03:24:02.254Z,1000.74
2019-03-16T03:24:45.350Z,1000.72
2019-03-16T03:25:25.668Z,1000.73
2019-03-16T03:26:06.207Z,1000.73
2019-03-16T03:26:46.631Z,1000.73
2019-03-16T03:27:27.245Z,1000.73
2019-03-16T03:28:11.373Z,1000.7
2019-03-16T03:28:55.847Z,1000.69
2019-03-16T03:29:37.233Z,1000.68
2019-03-16T03:30:17.687Z,1000.63
2019-03-16T03:30:58.218Z,1000.61
2019-03-16T03:31:38.825Z,1000.67
2019-03-16T03:32:19.301Z,1000.62
2019-03-16T03:32:59.632Z,1000.6
2019-03-16T03:33:58.405Z,1000.59
2019-03-16T03:34:22.115Z,1000.6
2019-03-16T03:35:02.555Z,1000.62
2019-03-16T03:35:43.109Z,1000.62
2019-03-16T03:36:25.879Z,1000.64
2019-03-16T03:37:06.143Z,1000.62
2019-03-16T03:37:47.194Z,1000.62
2019-03-16T03:38:28.183Z,1000.61
2019-03-16T03:39:15.318Z,1000.59
2019-03-16T03:39:55.724Z,1000.61
2019-03-16T03:40:36.299Z,1000.61
2019-03-16T03:41:17.099Z,1000.56
2019-03-16T03:41:57.260Z,1000.56
2019-03-16T03:42:37.728Z,1000.56
2019-03-16T03:43:18.077Z,1000.55
2019-03-16T03:43:58.632Z,1000.6
2019-03-16T03:44:41.013Z,1000.62
2019-03-16T03:45:19.395Z,1000.57
2019-03-16T03:45:59.950Z,1000.55
2019-03-16T03:46:40.728Z,1000.6
2019-03-16T03:47:22.388Z,1000.56
2019-03-16T03:48:02.979Z,1000.57
2019-03-16T03:48:43.291Z,1000.53
2019-03-16T03:49:23.671Z,1000.53
2019-03-16T03:50:04.070Z,1000.53
2019-03-16T03:50:44.439Z,1000.53
2019-03-16T03:51:25.092Z,1000.55
2019-03-16T03:52:05.544Z,1000.55
2019-03-16T03:52:46.222Z,1000.56
2019-03-16T03:53:26.470Z,1000.56
2019-03-16T03:54:06.820Z,1000.58
2019-03-16T03:54:47.223Z,1000.57
2019-03-16T03:55:27.633Z,1000.55
2019-03-16T03:56:08.221Z,1000.55
2019-03-16T03:56:48.730Z,1000.56
2019-03-16T03:57:28.914Z,1000.57
2019-03-16T03:58:09.283Z,1000.54
2019-03-16T03:58:49.644Z,1000.57
2019-03-16T03:59:30.083Z,1000.59
2019-03-16T04:00:10.439Z,1000.6
2019-03-16T04:00:51.218Z,1000.6
2019-03-16T04:01:31.630Z,1000.57
2019-03-16T04:02:11.883Z,1000.62
2019-03-16T04:02:52.394Z,1000.61
2019-03-16T04:03:32.638Z,1000.62
2019-03-16T04:04:15.485Z,1000.6
2019-03-16T04:04:53.653Z,1000.66
2019-03-16T04:05:34.023Z,1000.63
2019-03-16T04:06:14.475Z,1000.62
2019-03-16T04:06:56.313Z,1000.62
2019-03-16T04:07:36.634Z,1000.61
2019-03-16T04:08:17.031Z,1000.61
2019-03-16T04:08:57.661Z,1000.64
2019-03-16T04:09:37.916Z,1000.67
2019-03-16T04:10:18.598Z,1000.62
2019-03-16T04:10:58.890Z,1000.64
2019-03-16T04:11:39.217Z,1000.63
2019-03-16T04:12:19.662Z,1000.6
2019-03-16T04:13:00.279Z,1000.56
2019-03-16T04:13:40.673Z,1000.54
2019-03-16T04:14:21.052Z,1000.59
2019-03-16T04:15:02.234Z,1000.58
2019-03-16T04:15:43.822Z,1000.58
2019-03-16T04:16:24.339Z,1000.63
2019-03-16T04:17:05.437Z,1000.57
2019-03-16T04:17:47.644Z,1000.58
2019-03-16T04:23:22.993Z,1000.67
2019-03-16T04:24:16.068Z,1000.66
2019-03-16T05:07:04.062Z,1000.52
2019-03-16T05:07:47.132Z,1000.54
2019-03-16T05:08:28.085Z,1000.55
2019-03-16T05:09:09.669Z,1000.58
2019-03-16T05:16:46.068Z,1000.47
2019-03-16T05:17:25.177Z,1000.51
2019-03-16T05:18:05.611Z,1000.57
2019-03-16T05:18:46.076Z,1000.56
2019-03-16T05:19:26.375Z,1000.55
2019-03-16T05:20:06.715Z,1000.54
2019-03-16T05:20:47.152Z,1000.51
2019-03-16T05:21:27.473Z,1000.56
2019-03-16T05:22:07.947Z,1000.6
2019-03-16T05:22:48.303Z,1000.57
2019-03-16T05:23:28.684Z,1000.54
2019-03-16T05:24:09.031Z,1000.56
2019-03-16T05:24:49.459Z,1000.51
2019-03-16T05:25:29.859Z,1000.54
2019-03-16T05:26:10.182Z,1000.55
2019-03-16T05:26:50.617Z,1000.51
2019-03-16T05:27:30.995Z,1000.49
2019-03-16T05:28:11.401Z,1000.51
2019-03-16T05:28:51.731Z,1000.5
2019-03-16T05:29:32.126Z,1000.52
2019-03-16T05:30:12.524Z,1000.49
2019-03-16T05:30:52.899Z,1000.5
2019-03-16T05:31:33.274Z,1000.55
2019-03-16T05:32:13.683Z,1000.52
2019-03-16T05:32:54.085Z,1000.54
2019-03-16T05:33:34.494Z,1000.51
2019-03-16T05:34:14.893Z,1000.41
2019-03-16T05:34:56.595Z,1000.46
2019-03-16T05:35:35.646Z,1000.39
2019-03-16T05:36:16.058Z,1000.37
2019-03-16T05:36:56.456Z,1000.43
2019-03-16T05:37:36.888Z,1000.4
2019-03-16T05:38:17.248Z,1000.47
2019-03-16T05:38:57.641Z,1000.48
2019-03-16T05:39:38.071Z,1000.49
2019-03-16T05:40:19.211Z,1000.49
2019-03-16T05:40:59.616Z,1000.48
2019-03-16T05:41:39.970Z,1000.43
2019-03-16T05:42:20.370Z,1000.48
2019-03-16T05:43:00.733Z,1000.51
2019-03-16T05:43:41.630Z,1000.51
2019-03-16T05:44:21.559Z,1000.45
2019-03-16T05:45:01.894Z,1000.45
2019-03-16T05:45:42.310Z,1000.46
2019-03-16T05:46:22.709Z,1000.47
2019-03-16T05:47:03.084Z,1000.45
2019-03-16T05:47:43.451Z,1000.48
2019-03-16T05:48:23.837Z,1000.45
2019-03-16T05:49:04.201Z,1000.4
2019-03-16T05:49:44.628Z,1000.34
2019-03-16T05:50:24.953Z,1000.37
2019-03-16T05:51:05.356Z,1000.38
2019-03-16T05:51:45.700Z,1000.37
2019-03-16T05:52:26.123Z,1000.33
2019-03-16T05:53:06.509Z,1000.37
2019-03-16T05:53:46.856Z,1000.36
2019-03-16T05:54:27.327Z,1000.4
2019-03-16T05:55:07.618Z,1000.36
2019-03-16T05:55:47.987Z,1000.36
2019-03-16T05:56:28.400Z,1000.31
2019-03-16T05:57:08.927Z,1000.31
2019-03-16T05:57:49.294Z,1000.3
2019-03-16T05:58:29.712Z,1000.32
2019-03-16T05:59:10.084Z,1000.35
2019-03-16T05:59:50.518Z,1000.35
2019-03-16T06:00:31.392Z,1000.38
2019-03-16T06:01:11.776Z,1000.43
2019-03-16T06:01:52.163Z,1000.43
2019-03-16T06:02:32.536Z,1000.43
2019-03-16T06:03:12.930Z,1000.43
2019-03-16T06:03:53.326Z,1000.37
2019-03-16T06:04:33.663Z,1000.39
2019-03-16T06:05:14.084Z,1000.4
2019-03-16T06:05:54.513Z,1000.39
2019-03-16T06:06:34.843Z,1000.36
2019-03-16T06:07:15.245Z,1000.38
2019-03-16T06:07:55.756Z,1000.3
2019-03-16T06:08:36.237Z,1000.35
2019-03-16T06:09:16.642Z,1000.32
2019-03-16T06:09:57.096Z,1000.37
2019-03-16T06:10:37.417Z,1000.28
2019-03-16T06:11:17.798Z,1000.33
2019-03-16T06:11:58.231Z,1000.35
2019-03-16T06:12:38.699Z,1000.34
2019-03-16T06:13:19.066Z,1000.32
2019-03-16T06:13:59.519Z,1000.32
2019-03-16T06:14:40.555Z,1000.38
2019-03-16T06:15:21.005Z,1000.4
2019-03-16T06:16:05.322Z,1000.39
2019-03-16T06:16:46.035Z,1000.42
2019-03-16T06:17:26.133Z,1000.37
2019-03-16T06:18:06.545Z,1000.45
2019-03-16T06:18:46.882Z,1000.38
2019-03-16T06:19:27.290Z,1000.39
2019-03-16T06:20:07.689Z,1000.35
2019-03-16T06:20:48.423Z,1000.4
2019-03-16T06:21:28.840Z,1000.39
2019-03-16T06:22:09.587Z,1000.4
2019-03-16T06:22:53.714Z,1000.4
2019-03-16T06:23:35.139Z,1000.45
2019-03-16T06:24:15.459Z,1000.42
2019-03-16T06:24:58.270Z,1000.4
2019-03-16T06:25:41.693Z,1000.43
2019-03-16T06:26:24.078Z,1000.45
2019-03-16T06:27:04.935Z,1000.47
2019-03-16T06:27:46.454Z,1000.39
2019-03-16T06:28:29.543Z,1000.5
2019-03-16T06:29:10.153Z,1000.42
2019-03-16T06:29:50.474Z,1000.44
2019-03-16T06:30:32.095Z,1000.4
2019-03-16T06:31:16.085Z,1000.4
2019-03-16T06:31:56.384Z,1000.42
2019-03-16T06:32:36.728Z,1000.4
2019-03-16T06:33:17.128Z,1000.32
2019-03-16T06:33:57.620Z,1000.38
2019-03-16T06:34:39.116Z,1000.4
2019-03-16T06:35:24.711Z,1000.4
2019-03-16T06:36:01.928Z,1000.16
2019-03-16T06:36:43.227Z,1000.36
2019-03-16T06:37:23.529Z,1000.34
2019-03-16T06:38:04.925Z,1000.38
2019-03-16T06:38:46.238Z,1000.35
2019-03-16T06:39:26.463Z,1000.37
2019-03-16T06:40:07.208Z,1000.3
2019-03-16T06:40:47.471Z,1000.19
2019-03-16T06:41:28.574Z,1000.31
2019-03-16T06:42:09.056Z,1000.41
2019-03-16T06:42:49.524Z,1000.37
2019-03-16T06:43:40.578Z,1000.38
2019-03-16T06:44:20.867Z,1000.46
2019-03-16T06:45:02.894Z,1000.5
2019-03-16T06:45:43.379Z,1000.4
2019-03-16T06:46:23.740Z,1000.44
2019-03-16T06:47:04.142Z,1000.36
2019-03-16T06:47:46.426Z,1000.3
2019-03-16T06:48:26.929Z,1000.36
2019-03-16T06:49:07.336Z,1000.45
2019-03-16T06:49:47.687Z,1000.56
2019-03-16T06:50:30.091Z,1000.49
2019-03-16T06:51:12.045Z,1000.54
2019-03-16T06:51:52.843Z,1000.5
2019-03-16T06:52:33.168Z,1000.6
2019-03-16T06:53:15.249Z,1000.62
2019-03-16T06:53:55.612Z,1000.57
2019-03-16T06:54:36.962Z,1000.59
2019-03-16T06:55:17.413Z,1000.44
2019-03-16T06:55:57.748Z,1000.65
2019-03-16T06:56:38.464Z,1000.57
2019-03-16T06:57:18.922Z,1000.34
2019-03-16T06:57:59.490Z,1000.68
2019-03-16T06:58:39.825Z,1000.56
2019-03-16T06:59:20.451Z,1000.39
2019-03-16T07:00:01.180Z,1000.53
2019-03-16T07:00:41.564Z,1000.55
2019-03-16T07:01:22.028Z,1000.49
2019-03-16T07:02:02.603Z,1000.56
2019-03-16T07:02:42.798Z,1000.51
2019-03-16T07:03:25.236Z,1000.56
2019-03-16T07:04:07.081Z,1000.52
2019-03-16T07:04:47.471Z,1000.61
2019-03-16T07:05:37.465Z,1000.52
2019-03-16T07:06:08.792Z,1000.42
2019-03-16T07:06:49.505Z,1000.59
2019-03-16T07:07:29.919Z,1000.53
2019-03-16T07:08:10.585Z,1000.56
2019-03-16T07:08:50.939Z,1000.55
2019-03-16T07:09:31.709Z,1000.43
2019-03-16T07:10:14.030Z,1000.43
2019-03-16T07:10:54.422Z,1000.48
2019-03-16T07:11:38.244Z,1000.54
2019-03-16T07:12:25.853Z,1000.57
2019-03-16T07:13:06.219Z,1000.49
2019-03-16T07:13:50.457Z,1000.45
2019-03-16T07:14:31.346Z,1000.54
2019-03-16T07:15:12.103Z,1000.56
2019-03-16T07:15:55.441Z,1000.54
2019-03-16T07:16:36.749Z,1000.62
2019-03-16T07:17:17.110Z,1000.42
2019-03-16T07:17:57.534Z,1000.49
2019-03-16T07:18:40.185Z,1000.58
2019-03-16T07:19:22.181Z,1000.52
2019-03-16T07:20:02.572Z,1000.59
2019-03-16T07:20:43.051Z,1000.58
2019-03-16T07:21:23.701Z,1000.54
2019-03-16T07:22:04.843Z,1000.55
2019-03-16T07:22:45.731Z,1000.44
2019-03-16T07:23:26.220Z,1000.51
2019-03-16T07:24:08.458Z,1000.45
2019-03-16T07:24:51.531Z,1000.37
2019-03-16T07:25:29.226Z,1000.51
2019-03-16T07:26:15.352Z,1000.46
2019-03-16T07:26:55.326Z,1000.51
2019-03-16T07:27:37.492Z,1000.54
2019-03-16T07:28:17.908Z,1000.45
2019-03-16T07:28:59.852Z,1000.47
2019-03-16T07:29:42.236Z,1000.5
2019-03-16T07:30:25.375Z,1000.54
2019-03-16T07:31:05.851Z,1000.53
2019-03-16T07:31:46.178Z,1000.7
2019-03-16T07:32:30.902Z,1000.56
2019-03-16T07:33:12.410Z,1000.58
2019-03-16T07:33:52.744Z,1000.54
2019-03-16T07:34:33.076Z,1000.52
2019-03-16T07:35:14.833Z,1000.51
2019-03-16T07:35:55.443Z,1000.43
2019-03-16T07:36:36.917Z,1000.56
2019-03-16T07:37:20.885Z,1000.44
2019-03-16T07:38:01.446Z,1000.3
2019-03-16T07:38:42.717Z,1000.47
2019-03-16T07:39:22.413Z,1000.47
2019-03-16T07:40:02.721Z,1000.37
2019-03-16T07:40:45.148Z,1000.52
2019-03-16T07:41:26.496Z,1000.44
2019-03-16T07:42:10.274Z,1000.48
2019-03-16T07:42:52.592Z,1000.42
2019-03-16T07:43:34.801Z,1000.42
2019-03-16T07:44:15.257Z,1000.49
2019-03-16T07:45:07.442Z,1000.45
2019-03-16T07:45:37.739Z,1000.54
2019-03-16T07:46:18.125Z,1000.48
2019-03-16T07:47:00.292Z,1000.43
2019-03-16T07:47:40.607Z,1000.4
2019-03-16T07:48:21.296Z,1000.47
2019-03-16T07:49:02.275Z,1000.46
2019-03-16T07:49:42.720Z,1000.46
2019-03-16T07:50:28.861Z,1000.45
2019-03-16T07:51:09.367Z,1000.48
2019-03-16T07:51:50.041Z,1000.46
2019-03-16T07:52:30.445Z,1000.4
2019-03-16T07:53:12.584Z,1000.31
2019-03-16T07:53:54.062Z,1000.39
2019-03-16T07:54:34.553Z,1000.38
2019-03-16T07:55:14.893Z,1000.31
2019-03-16T07:55:55.748Z,1000.39
2019-03-16T07:56:39.476Z,1000.41
2019-03-16T07:57:21.990Z,1000.45
2019-03-16T07:58:02.216Z,1000.4
2019-03-16T07:58:42.594Z,1000.39
2019-03-16T07:59:22.946Z,1000.4
2019-03-16T08:00:03.354Z,1000.39
2019-03-16T08:00:45.351Z,1000.39
2019-03-16T08:01:26.639Z,1000.47
2019-03-16T08:02:07.403Z,1000.46
2019-03-16T08:02:47.867Z,1000.37
2019-03-16T08:03:28.153Z,1000.43
2019-03-16T08:04:08.770Z,1000.48
2019-03-16T08:04:49.037Z,1000.46
2019-03-16T08:05:29.419Z,1000.51
2019-03-16T08:06:10.015Z,1000.52
2019-03-16T08:06:51.122Z,1000.52
2019-03-16T08:07:31.517Z,1000.55
2019-03-16T08:08:13.924Z,1000.56
2019-03-16T08:08:55.865Z,1000.55
2019-03-16T08:09:37.869Z,1000.56
2019-03-16T08:10:19.394Z,1000.6
2019-03-16T08:11:01.413Z,1000.55
2019-03-16T08:11:43.155Z,1000.45
2019-03-16T08:12:24.940Z,1000.51
2019-03-16T08:13:06.179Z,1000.58
2019-03-16T08:13:47.832Z,1000.54
2019-03-16T08:14:29.260Z,1000.49
2019-03-16T08:15:10.086Z,1000.47
2019-03-16T08:15:50.689Z,1000.5
2019-03-16T08:16:33.312Z,1000.48
2019-03-16T08:17:16.044Z,1000.51
2019-03-16T08:17:56.521Z,1000.47
2019-03-16T08:18:36.845Z,1000.56
2019-03-16T08:19:17.493Z,1000.54
2019-03-16T08:19:59.417Z,1000.48
2019-03-16T08:20:39.850Z,1000.51
2019-03-16T08:21:23.340Z,1000.53
2019-03-16T08:22:03.492Z,1000.55
2019-03-16T08:22:44.482Z,1000.54
2019-03-16T08:23:26.333Z,1000.56
2019-03-16T08:24:10.343Z,1000.54
2019-03-16T08:24:50.719Z,1000.56
2019-03-16T08:25:32.454Z,1000.49
2019-03-16T08:26:16.723Z,1000.61
2019-03-16T08:26:59.146Z,1000.58
2019-03-16T08:27:52.918Z,1000.61
2019-03-16T08:28:19.730Z,1000.64
2019-03-16T08:29:00.173Z,1000.65
2019-03-16T08:29:40.653Z,1000.63
2019-03-16T08:30:23.897Z,1000.61
2019-03-16T08:31:03.752Z,1000.48
2019-03-16T08:31:45.007Z,1000.55
2019-03-16T08:32:26.255Z,1000.6
2019-03-16T08:33:06.981Z,1000.65
2019-03-16T08:33:48.380Z,1000.66
2019-03-16T08:34:30.912Z,1000.68
2019-03-16T08:35:12.926Z,1000.7
2019-03-16T08:35:53.322Z,1000.57
2019-03-16T08:36:36.091Z,1000.57
2019-03-16T08:37:16.471Z,1000.18
2019-03-16T08:37:57.915Z,1000.71
2019-03-16T08:38:42.002Z,1000.75
2019-03-16T08:39:23.896Z,1000.67
2019-03-16T08:40:04.338Z,1000.67
2019-03-16T08:40:46.769Z,1000.73
2019-03-16T08:41:27.912Z,1000.73
2019-03-16T08:42:13.870Z,1000.73
2019-03-16T08:42:54.440Z,1000.73
2019-03-16T08:43:34.894Z,1000.71
2019-03-16T08:44:17.233Z,1000.67
2019-03-16T08:44:57.630Z,1000.65
2019-03-16T08:45:37.999Z,1000.59
2019-03-16T08:46:18.406Z,1000.62
2019-03-16T08:46:59.745Z,1000.72
2019-03-16T08:47:40.123Z,1000.65
2019-03-16T08:48:22.945Z,1000.66
2019-03-16T08:49:01.046Z,1000.58
2019-03-16T08:49:41.476Z,1000.64
2019-03-16T08:50:24.125Z,1000.65
2019-03-16T08:51:04.617Z,1000.58
2019-03-16T08:51:45.047Z,1000.61
2019-03-16T08:52:26.267Z,1000.57
2019-03-16T08:53:06.854Z,1000.53
2019-03-16T08:53:47.296Z,1000.59
2019-03-16T08:54:27.796Z,1000.61
2019-03-16T08:55:12.174Z,1000.59
2019-03-16T08:55:54.380Z,1000.57
2019-03-16T08:56:34.794Z,1000.56
2019-03-16T08:57:15.215Z,1000.6
2019-03-16T08:58:05.516Z,1000.48
2019-03-16T08:58:38.170Z,1000.52
2019-03-16T08:59:18.665Z,1000.53
2019-03-16T08:59:59.125Z,1000.42
2019-03-16T09:00:41.241Z,1000.57
2019-03-16T09:01:21.787Z,1000.68
2019-03-16T09:02:02.134Z,1000.58
2019-03-16T09:02:42.602Z,1000.56
2019-03-16T09:03:23.101Z,1000.5
2019-03-16T09:04:03.439Z,1000.55
2019-03-16T09:04:44.765Z,1000.62
2019-03-16T09:05:25.730Z,1000.66
2019-03-16T09:06:07.842Z,1000.65
2019-03-16T09:06:48.302Z,1000.51
2019-03-16T09:07:28.706Z,1000.52
2019-03-16T09:08:09.324Z,1000.21
2019-03-16T09:08:50.237Z,1000.61
2019-03-16T09:09:31.772Z,1000.66
2019-03-16T09:10:14.887Z,1000.51
2019-03-16T09:10:56.170Z,1000.45
2019-03-16T09:11:40.675Z,1000.58
2019-03-16T09:15:27.058Z,1000.42
2019-03-16T09:16:07.110Z,1000.39
2019-03-16T09:16:47.816Z,1000.5
2019-03-16T09:17:29.282Z,1000.25
2019-03-16T09:18:09.671Z,1000.49
2019-03-16T09:18:50.595Z,1000.31
2019-03-16T09:19:32.086Z,1000.32
2019-03-16T09:20:12.463Z,1000.38
2019-03-16T09:20:52.839Z,1000.3
2019-03-16T09:21:33.310Z,1000.09
2019-03-16T09:22:13.777Z,1000.37
2019-03-16T09:22:54.179Z,1000.36
2019-03-16T09:23:35.977Z,1000.4
2019-03-16T09:24:16.411Z,1000.34
2019-03-16T09:24:56.850Z,1000.11
2019-03-16T09:25:39.473Z,1000.27
2019-03-16T09:26:19.721Z,1000.21
2019-03-16T09:27:00.887Z,1000.22
2019-03-16T09:27:41.506Z,1000.19
2019-03-16T09:28:23.866Z,1000.21
2019-03-16T09:29:14.291Z,1000.13
2019-03-16T09:29:46.529Z,1000.21
2019-03-16T09:30:29.552Z,1000.16
2019-03-16T09:31:10.238Z,1000.02
2019-03-16T09:31:52.424Z,999.99
2019-03-16T09:32:36.499Z,1000.04
2019-03-16T09:33:19.021Z,1000.05
2019-03-16T09:33:59.313Z,999.97
2019-03-16T09:39:34.197Z,1000.03
2019-03-16T09:40:15.737Z,999.91
2019-03-16T09:40:56.340Z,999.98
2019-03-16T09:41:36.750Z,1000.04
2019-03-16T09:42:20.644Z,999.86
2019-03-16T09:43:02.966Z,999.81
2019-03-16T09:43:43.700Z,999.99
2019-03-16T09:44:25.840Z,999.96
2019-03-16T09:45:06.369Z,999.94
2019-03-16T09:45:47.332Z,999.95
2019-03-16T09:46:27.710Z,999.86
2019-03-16T09:47:08.282Z,999.95
2019-03-16T09:47:48.869Z,999.94
2019-03-16T09:48:29.227Z,999.98
2019-03-16T09:49:11.250Z,999.93
2019-03-16T09:49:52.635Z,999.78
2019-03-16T09:50:32.993Z,999.97
2019-03-16T09:51:13.442Z,999.94
2019-03-16T09:51:53.884Z,999.91
2019-03-16T09:52:40.561Z,1000
2019-03-16T09:53:29.686Z,1000.02
2019-03-16T09:54:11.865Z,999.94
2019-03-16T09:54:54.841Z,1000.02
2019-03-16T09:55:35.415Z,1000.05
2019-03-16T09:56:18.745Z,1000.02
2019-03-16T09:57:07.690Z,999.79
2019-03-16T09:57:48.309Z,999.96
2019-03-16T09:58:31.333Z,999.95
2019-03-16T09:59:10.378Z,999.95
2019-03-16T09:59:51.749Z,999.9
2019-03-16T10:00:33.757Z,999.99
2019-03-16T10:01:16.378Z,999.81
2019-03-16T10:01:57.596Z,1000
2019-03-16T10:02:39.926Z,999.84
2019-03-16T10:03:20.459Z,999.92
2019-03-16T10:04:02.808Z,999.97
2019-03-16T10:04:44.805Z,999.9
2019-03-16T10:05:25.308Z,999.97
2019-03-16T10:06:05.838Z,999.96
2019-03-16T10:06:46.203Z,999.9
2019-03-16T10:07:26.543Z,999.92
2019-03-16T10:08:07.076Z,999.88
2019-03-16T10:08:47.302Z,999.91
2019-03-16T10:09:28.800Z,999.96
2019-03-16T10:10:09.357Z,999.89
2019-03-16T10:10:49.542Z,999.86
2019-03-16T10:11:32.227Z,999.84
2019-03-16T10:12:12.493Z,999.82
2019-03-16T10:12:53.773Z,999.81
2019-03-16T10:13:34.372Z,999.65
2019-03-16T10:14:15.341Z,999.72
2019-03-16T10:14:55.699Z,999.76
2019-03-16T10:15:37.322Z,999.77
2019-03-16T10:16:19.215Z,999.79
2019-03-16T10:17:03.557Z,999.86
2019-03-16T10:17:44.091Z,999.75
2019-03-16T10:18:27.412Z,999.75
2019-03-16T10:19:08.818Z,999.74
2019-03-16T10:19:51.241Z,999.79
2019-03-16T10:20:31.748Z,999.78
2019-03-16T10:21:18.750Z,999.69
2019-03-16T10:21:57.234Z,999.75
2019-03-16T10:22:40.474Z,999.78
2019-03-16T10:23:20.967Z,999.77
2019-03-16T10:24:03.101Z,999.56
2019-03-16T10:24:44.311Z,999.83
2019-03-16T10:25:24.678Z,999.86
2019-03-16T10:26:06.440Z,999.88
2019-03-16T10:26:49.029Z,999.85
2019-03-16T10:27:31.236Z,999.91
2019-03-16T10:28:11.569Z,999.85
2019-03-16T10:28:53.614Z,999.81
2019-03-16T11:15:00.657Z,999
2019-03-16T11:15:45.926Z,999.27
2019-03-16T11:16:31.713Z,999.24
2019-03-16T11:17:13.149Z,999.36
2019-03-16T11:17:55.644Z,999.15
2019-03-16T11:18:36.189Z,999.11
2019-03-16T11:19:16.867Z,999.26
2019-03-16T11:19:57.561Z,999.21
2019-03-16T11:20:37.611Z,999.32